Abeokuta, Nigeria
Current Conditions -  °F | °C
As of 5:00 PM on Friday 28 Nov 2014 (Local Time) from DBBB Reporting Station
Few Clouds Few Clouds  
Wind Chill: 84°   Ceiling: Unl
Heat Index: 98°   Visibility: 6mi
Dew Point: 81°   Wind: 8mph
Humidity: 89%   Direction: 190°S
Pressure: 29.77"   Gusts: NA
Location:  7.16°N, 3.35°E
Report Text: DBBB 281600Z 19007KT 160V220 9999 FEW012 FEW025CB 29/27 Q1008 TEMPO TS
Loading
Personal Weather Stations






























Interactive Weather Map New forecast layout! Learn more

10-Day Weather Forecast

Advertisements
Track Severe Weather on mobile